Time;durP1;ratioP1;P1;durP2;ratioP2;P2;SDS_P1;SDS_P2;PMS_P1;PMS_P2;Temp;Humidity;BMP_temperature;BMP_pressure;BME280_temperature;BME280_humidity;BME280_pressure;Samples;Min_cycle;Max_cycle;Signal;HPM_P1;HPM_P2
2023/12/28 00:09:42;;;;;;;18.10;10.60;;;1.40;99.90;;;;;;20990722;28;20879;-52
2023/12/28 00:19:44;;;;;;;18.15;10.57;;;1.60;99.90;;;;;;21003211;28;20105;-50
2023/12/28 00:29:49;;;;;;;16.83;10.43;;;1.70;99.90;;;;;;21043145;28;20108;-51
2023/12/28 00:39:51;;;;;;;17.55;10.02;;;1.60;99.90;;;;;;21030516;28;20366;-60
2023/12/28 00:49:53;;;;;;;18.08;9.80;;;1.40;99.90;;;;;;21056039;28;20505;-60
2023/12/28 00:59:56;;;;;;;18.40;10.93;;;1.10;99.90;;;;;;21026285;28;20055;-49
2023/12/28 01:09:57;;;;;;;19.77;10.88;;;1.00;99.90;;;;;;21046194;28;20085;-60
2023/12/28 01:20:00;;;;;;;18.17;10.32;;;0.70;99.90;;;;;;21050943;28;20481;-60
2023/12/28 01:30:02;;;;;;;18.05;10.20;;;0.20;99.90;;;;;;21045068;28;20040;-48
2023/12/28 01:40:09;;;;;;;24.27;13.50;;;-0.30;99.90;;;;;;21026559;28;20074;-53
2023/12/28 01:50:10;;;;;;;21.15;12.70;;;0.40;99.90;;;;;;20995545;28;20039;-60
2023/12/28 02:00:12;;;;;;;22.60;12.38;;;1.00;99.90;;;;;;21050934;28;20024;-60
2023/12/28 02:10:18;;;;;;;23.55;12.68;;;1.30;99.90;;;;;;21023766;28;20090;-60
2023/12/28 02:20:24;;;;;;;23.63;12.38;;;1.30;99.90;;;;;;21025439;28;20040;-48
2023/12/28 02:30:26;;;;;;;21.20;11.63;;;1.30;99.90;;;;;;21057299;28;20125;-60
2023/12/28 02:40:30;;;;;;;18.63;10.70;;;1.10;99.90;;;;;;21013538;28;20043;-53
2023/12/28 02:50:33;;;;;;;21.70;10.77;;;1.10;99.90;;;;;;20964873;28;20028;-60
2023/12/28 03:00:36;;;;;;;16.92;9.32;;;0.90;99.90;;;;;;20980616;28;20564;-60
2023/12/28 03:10:38;;;;;;;17.38;10.10;;;0.80;99.90;;;;;;21007914;28;20032;-60
2023/12/28 03:20:42;;;;;;;17.42;10.15;;;0.80;99.90;;;;;;20993018;28;20028;-60
2023/12/28 03:30:47;;;;;;;15.00;8.38;;;0.90;99.90;;;;;;21051640;28;20464;-60
2023/12/28 03:40:50;;;;;;;15.73;8.90;;;1.00;99.90;;;;;;21023187;28;20034;-59
2023/12/28 03:50:51;;;;;;;11.70;7.22;;;1.20;99.90;;;;;;20979279;28;20032;-58
2023/12/28 04:00:55;;;;;;;14.40;7.97;;;1.40;99.90;;;;;;21048615;28;20427;-51
2023/12/28 04:10:57;;;;;;;12.52;7.32;;;1.50;99.90;;;;;;21019735;28;20031;-53
2023/12/28 04:20:59;;;;;;;15.85;6.47;;;1.80;99.90;;;;;;21038607;28;20052;-60
2023/12/28 04:31:05;;;;;;;8.68;5.70;;;1.90;99.90;;;;;;21030839;28;20036;-61
2023/12/28 04:41:07;;;;;;;9.40;5.20;;;2.00;99.90;;;;;;20998154;28;20696;-53
2023/12/28 04:51:09;;;;;;;7.88;4.85;;;2.00;99.90;;;;;;20972682;28;20036;-60
2023/12/28 05:01:11;;;;;;;8.25;5.18;;;2.10;99.90;;;;;;21036209;28;20028;-60
2023/12/28 05:11:13;;;;;;;9.20;4.95;;;2.00;99.90;;;;;;21014505;28;20090;-60
2023/12/28 05:21:15;;;;;;;8.73;5.05;;;2.00;99.90;;;;;;21011927;28;20074;-49
2023/12/28 05:31:16;;;;;;;7.22;4.60;;;1.80;99.90;;;;;;21070699;28;20097;-60
2023/12/28 05:41:18;;;;;;;5.95;4.30;;;1.80;99.90;;;;;;21062303;28;20393;-60
2023/12/28 05:51:21;;;;;;;7.13;4.63;;;1.80;99.90;;;;;;21045729;28;20028;-58
2023/12/28 06:01:28;;;;;;;9.65;4.78;;;1.70;99.90;;;;;;21070159;28;20040;-60
2023/12/28 06:11:30;;;;;;;9.02;4.57;;;1.10;99.90;;;;;;21046147;28;20028;-52
2023/12/28 06:21:34;;;;;;;9.55;5.10;;;0.80;99.90;;;;;;21062297;28;20105;-60
2023/12/28 06:31:37;;;;;;;7.53;4.50;;;0.60;99.90;;;;;;21060623;28;20089;-60
2023/12/28 06:41:39;;;;;;;7.53;4.15;;;0.90;99.90;;;;;;21057076;28;20036;-60
2023/12/28 06:51:42;;;;;;;7.30;3.92;;;1.00;99.90;;;;;;21059425;28;20032;-59
2023/12/28 07:01:45;;;;;;;8.93;5.50;;;1.20;99.90;;;;;;21058995;28;20027;-59
2023/12/28 07:11:47;;;;;;;6.93;4.68;;;1.20;99.90;;;;;;21054543;28;20028;-60
2023/12/28 07:21:49;;;;;;;8.35;4.32;;;1.20;99.90;;;;;;20980058;28;20053;-60
2023/12/28 07:31:51;;;;;;;7.90;5.28;;;0.90;99.90;;;;;;20966803;28;20036;-60
2023/12/28 07:41:53;;;;;;;8.43;5.28;;;1.10;99.90;;;;;;20946857;28;20102;-60
2023/12/28 07:51:57;;;;;;;7.72;4.68;;;1.40;99.90;;;;;;20935406;28;20439;-60
2023/12/28 08:01:59;;;;;;;8.45;4.93;;;1.50;99.90;;;;;;20957553;28;20040;-60
2023/12/28 08:12:02;;;;;;;7.43;4.82;;;2.10;99.90;;;;;;20955169;28;20025;-59
2023/12/28 08:22:04;;;;;;;9.48;3.70;;;2.70;99.90;;;;;;20965135;28;20120;-59
2023/12/28 08:32:06;;;;;;;4.35;2.95;;;3.70;99.90;;;;;;20982934;28;20040;-57
2023/12/28 08:42:08;;;;;;;4.18;2.65;;;4.00;99.90;;;;;;20973620;28;20024;-59
2023/12/28 08:52:10;;;;;;;7.90;5.50;;;4.20;99.90;;;;;;20969150;28;20638;-50
2023/12/28 09:02:11;;;;;;;7.80;4.00;;;3.80;99.90;;;;;;20971980;28;20028;-51
2023/12/28 09:12:13;;;;;;;8.50;4.75;;;4.00;99.90;;;;;;20973031;28;20036;-48
2023/12/28 09:22:15;;;;;;;7.00;3.90;;;4.50;99.90;;;;;;20961103;28;20099;-59
2023/12/28 09:32:17;;;;;;;6.35;3.88;;;4.20;99.90;;;;;;20953161;28;20059;-56
2023/12/28 09:42:58;;;;;;;6.03;3.47;;;4.40;99.90;;;;;;20933483;28;20036;-59
2023/12/28 09:53:01;;;;;;;6.00;3.25;;;4.60;99.90;;;;;;20909824;28;20045;-59
2023/12/28 10:03:03;;;;;;;7.88;4.35;;;4.70;99.90;;;;;;20945124;28;20041;-49
2023/12/28 10:13:09;;;;;;;10.38;5.47;;;4.70;99.90;;;;;;20916714;28;20028;-59
2023/12/28 10:23:11;;;;;;;5.60;3.50;;;4.60;99.90;;;;;;20962443;28;20041;-59
2023/12/28 10:33:14;;;;;;;4.05;2.28;;;4.60;99.90;;;;;;20979064;28;20036;-47
2023/12/28 10:43:19;;;;;;;4.35;2.50;;;4.60;99.90;;;;;;20953240;28;20086;-56
2023/12/28 10:53:38;;;;;;;3.50;1.58;;;4.90;99.90;;;;;;20957837;28;20029;-59
2023/12/28 11:03:44;;;;;;;3.70;1.50;;;5.60;99.90;;;;;;20907211;28;20038;-59
2023/12/28 11:13:46;;;;;;;3.85;2.20;;;6.00;99.90;;;;;;20955962;28;20032;-51
2023/12/28 11:23:49;;;;;;;2.30;1.30;;;6.00;99.90;;;;;;20930316;28;20049;-55
2023/12/28 11:33:54;;;;;;;3.22;1.75;;;6.00;99.90;;;;;;20955019;28;20037;-48
2023/12/28 11:44:05;;;;;;;1.95;1.60;;;5.90;99.90;;;;;;20960064;28;20021;-58
2023/12/28 11:54:06;;;;;;;2.53;1.60;;;5.80;99.90;;;;;;20962196;28;20036;-60
2023/12/28 12:04:08;;;;;;;0.30;0.20;;;5.80;99.90;;;;;;20969790;28;20036;-51
2023/12/28 12:14:11;;;;;;;1.55;1.00;;;5.80;99.90;;;;;;20931872;28;20025;-55
2023/12/28 12:24:20;;;;;;;0.47;0.35;;;6.00;99.90;;;;;;20902216;28;20094;-59
2023/12/28 12:34:22;;;;;;;0.70;0.30;;;5.80;99.90;;;;;;20919412;28;20090;-59
2023/12/28 12:44:24;;;;;;;0.82;0.50;;;5.70;99.90;;;;;;20928986;28;20068;-59
2023/12/28 12:54:28;;;;;;;1.42;0.75;;;5.80;99.90;;;;;;20961311;28;20037;-60
2023/12/28 13:04:30;;;;;;;1.17;0.40;;;6.50;99.90;;;;;;20944220;28;20101;-58
2023/12/28 13:14:32;;;;;;;0.40;0.30;;;6.60;99.90;;;;;;20923685;28;20049;-48
2023/12/28 13:24:34;;;;;;;1.08;0.68;;;6.90;99.90;;;;;;20908574;28;20080;-51
2023/12/28 13:34:35;;;;;;;1.10;0.90;;;6.60;99.90;;;;;;20942057;28;20037;-59
2023/12/28 13:44:37;;;;;;;2.22;1.55;;;6.30;99.90;;;;;;20924457;28;20082;-60
2023/12/28 13:54:40;;;;;;;3.85;1.70;;;6.40;99.90;;;;;;20965899;28;20098;-60
2023/12/28 14:04:42;;;;;;;0.65;0.45;;;6.50;99.90;;;;;;20963201;28;20480;-59
2023/12/28 14:14:43;;;;;;;1.45;0.75;;;5.90;99.90;;;;;;20945803;28;20040;-59
2023/12/28 14:24:45;;;;;;;4.90;3.38;;;5.70;99.90;;;;;;20977544;28;20106;-60
2023/12/28 14:34:48;;;;;;;2.08;1.20;;;5.40;99.90;;;;;;20983909;28;20044;-60
2023/12/28 14:44:51;;;;;;;3.75;2.70;;;5.00;99.90;;;;;;20983972;28;20025;-59
2023/12/28 14:54:56;;;;;;;1.85;1.02;;;4.80;99.90;;;;;;20974594;28;20024;-61
2023/12/28 15:04:59;;;;;;;2.55;1.67;;;4.60;99.90;;;;;;20983212;28;20028;-57
2023/12/28 15:15:01;;;;;;;2.97;1.92;;;4.70;99.90;;;;;;20980658;28;20051;-50
2023/12/28 15:25:05;;;;;;;3.55;0.50;;;4.50;99.90;;;;;;20965893;28;20067;-60
2023/12/28 15:35:12;;;;;;;6.57;3.53;;;4.50;99.90;;;;;;20941337;28;20032;-59
2023/12/28 15:45:13;;;;;;;4.85;3.42;;;4.40;99.90;;;;;;20624201;28;20144;-51
2023/12/28 15:55:15;;;;;;;5.10;2.35;;;4.00;99.90;;;;;;20654706;28;20085;-59
2023/12/28 16:05:17;;;;;;;9.77;6.53;;;4.00;99.90;;;;;;20731507;28;20061;-59
2023/12/28 16:15:19;;;;;;;5.43;3.78;;;3.80;99.90;;;;;;20878785;28;20575;-48
2023/12/28 16:25:21;;;;;;;8.35;5.93;;;3.50;99.90;;;;;;20971900;28;20052;-59
2023/12/28 16:35:23;;;;;;;8.93;5.28;;;3.40;99.90;;;;;;20975412;28;20047;-59
2023/12/28 16:45:25;;;;;;;5.22;3.45;;;3.20;99.90;;;;;;20975077;28;20028;-59
2023/12/28 16:55:27;;;;;;;9.93;5.75;;;3.50;99.90;;;;;;21008781;28;20066;-59
2023/12/28 17:05:30;;;;;;;8.15;5.18;;;3.50;99.90;;;;;;21053288;28;20044;-51
2023/12/28 17:15:35;;;;;;;9.75;5.20;;;3.50;99.90;;;;;;20972060;28;20036;-59
2023/12/28 17:25:40;;;;;;;2.22;1.40;;;3.70;99.90;;;;;;20987140;28;20118;-49
2023/12/28 17:35:42;;;;;;;6.53;2.58;;;4.00;99.90;;;;;;20986991;28;20049;-50
2023/12/28 17:46:24;;;;;;;8.52;3.80;;;4.10;99.90;;;;;;21051650;28;20098;-50
2023/12/28 17:56:26;;;;;;;2.45;1.70;;;4.00;99.90;;;;;;21063636;28;20028;-59
2023/12/28 18:06:28;;;;;;;2.40;1.80;;;4.10;99.90;;;;;;21026118;28;20036;-49
2023/12/28 18:16:30;;;;;;;4.30;2.47;;;4.20;99.90;;;;;;21027279;28;20440;-49
2023/12/28 18:26:32;;;;;;;3.63;1.55;;;4.10;99.90;;;;;;21024309;28;20074;-59
2023/12/28 18:36:35;;;;;;;2.22;1.50;;;4.00;99.90;;;;;;21062067;28;20028;-50
2023/12/28 18:46:37;;;;;;;0.60;0.32;;;4.20;99.90;;;;;;21057364;28;20032;-52
2023/12/28 18:56:39;;;;;;;2.00;0.60;;;4.20;99.90;;;;;;21060037;28;20035;-59
2023/12/28 19:06:40;;;;;;;4.72;2.75;;;4.30;99.90;;;;;;21063419;28;20036;-49
2023/12/28 19:16:42;;;;;;;7.20;4.10;;;4.20;99.90;;;;;;21033372;28;20031;-59
2023/12/28 19:26:44;;;;;;;6.35;3.83;;;3.80;99.90;;;;;;21063485;28;20663;-49
2023/12/28 19:36:46;;;;;;;8.20;4.75;;;3.40;99.90;;;;;;21059881;28;20033;-49
2023/12/28 19:46:49;;;;;;;5.70;2.90;;;3.30;99.90;;;;;;21052963;28;20089;-48
2023/12/28 19:56:51;;;;;;;5.55;3.30;;;3.40;99.90;;;;;;21054112;28;20032;-59
2023/12/28 20:06:54;;;;;;;5.38;3.45;;;3.60;99.90;;;;;;21045351;28;20027;-58
2023/12/28 20:16:56;;;;;;;4.15;2.83;;;3.70;99.90;;;;;;21050800;28;20035;-58
2023/12/28 20:27:00;;;;;;;5.22;3.95;;;3.40;99.90;;;;;;21039621;28;20109;-50
2023/12/28 20:37:03;;;;;;;7.13;4.30;;;2.60;99.90;;;;;;21051377;28;20036;-51
2023/12/28 20:47:06;;;;;;;2.92;1.00;;;2.40;99.90;;;;;;21053718;28;20081;-49
2023/12/28 20:57:08;;;;;;;1.67;0.82;;;3.00;99.90;;;;;;21051947;28;20032;-59
2023/12/28 21:07:11;;;;;;;7.97;4.68;;;4.00;99.90;;;;;;21048382;28;20028;-51
2023/12/28 21:17:15;;;;;;;4.15;2.97;;;4.00;99.90;;;;;;21049715;28;20025;-47
2023/12/28 21:27:17;;;;;;;4.57;3.05;;;3.40;99.90;;;;;;21054590;28;20089;-50
2023/12/28 21:37:19;;;;;;;7.47;3.47;;;3.20;99.90;;;;;;21046726;28;20517;-47
2023/12/28 21:47:21;;;;;;;5.72;4.20;;;2.80;99.90;;;;;;21054636;28;20405;-59
2023/12/28 21:57:24;;;;;;;7.72;4.90;;;2.70;99.90;;;;;;21049431;28;20044;-56
2023/12/28 22:07:26;;;;;;;6.53;3.72;;;2.40;99.90;;;;;;21035014;28;20082;-51
2023/12/28 22:17:40;;;;;;;6.60;3.70;;;2.20;99.90;;;;;;21064252;28;20035;-49
2023/12/28 22:27:42;;;;;;;6.40;3.20;;;2.40;99.90;;;;;;21067199;28;20052;-46
2023/12/28 22:37:43;;;;;;;5.50;3.15;;;2.10;99.90;;;;;;21058160;28;20028;-51
2023/12/28 22:47:45;;;;;;;0.70;0.50;;;2.50;99.90;;;;;;21065300;28;20085;-49
2023/12/28 22:57:48;;;;;;;2.22;1.55;;;3.30;99.90;;;;;;21061451;28;20113;-59
2023/12/28 23:07:49;;;;;;;1.38;0.77;;;4.00;99.90;;;;;;21055862;28;20683;-59
2023/12/28 23:18:01;;;;;;;1.27;0.65;;;4.50;99.90;;;;;;21060556;28;20084;-59
2023/12/28 23:28:06;;;;;;;0.80;0.55;;;5.00;99.90;;;;;;21062582;28;20568;-59
2023/12/28 23:38:08;;;;;;;0.77;0.57;;;5.00;99.90;;;;;;21053588;28;20039;-58
2023/12/28 23:48:10;;;;;;;0.77;0.55;;;5.20;99.90;;;;;;21060996;28;20058;-59
2023/12/28 23:58:12;;;;;;;1.27;0.60;;;5.30;99.90;;;;;;21056260;28;20032;-59
